sensor_id;sensor_type;location;lat;lon;timestamp;temperature;humidity
18191;DHT22;47004;51.366;12.348;2023-10-13T00:00:42;14.40;99.90
18191;DHT22;47004;51.366;12.348;2023-10-13T00:02:44;14.40;99.90
18191;DHT22;47004;51.366;12.348;2023-10-13T00:04:45;14.40;99.90
18191;DHT22;47004;51.366;12.348;2023-10-13T00:06:48;14.50;99.90
18191;DHT22;47004;51.366;12.348;2023-10-13T00:08:50;14.50;99.90
18191;DHT22;47004;51.366;12.348;2023-10-13T00:10:52;14.50;99.90
18191;DHT22;47004;51.366;12.348;2023-10-13T00:12:58;14.50;99.90
18191;DHT22;47004;51.366;12.348;2023-10-13T00:15:07;14.50;99.90
18191;DHT22;47004;51.366;12.348;2023-10-13T00:17:14;14.50;99.90
18191;DHT22;47004;51.366;12.348;2023-10-13T00:19:20;14.50;99.90
18191;DHT22;47004;51.366;12.348;2023-10-13T00:21:24;14.50;99.90
18191;DHT22;47004;51.366;12.348;2023-10-13T00:23:34;14.50;99.90
18191;DHT22;47004;51.366;12.348;2023-10-13T00:25:35;14.50;99.90
18191;DHT22;47004;51.366;12.348;2023-10-13T00:27:44;14.50;99.90
18191;DHT22;47004;51.366;12.348;2023-10-13T00:29:48;14.50;99.90
18191;DHT22;47004;51.366;12.348;2023-10-13T00:31:51;14.50;99.90
18191;DHT22;47004;51.366;12.348;2023-10-13T00:33:53;14.50;99.90
18191;DHT22;47004;51.366;12.348;2023-10-13T00:36:01;14.50;99.90
18191;DHT22;47004;51.366;12.348;2023-10-13T00:38:06;14.50;99.90
18191;DHT22;47004;51.366;12.348;2023-10-13T00:40:14;14.50;99.90
18191;DHT22;47004;51.366;12.348;2023-10-13T00:42:39;14.50;99.90
18191;DHT22;47004;51.366;12.348;2023-10-13T00:44:51;14.50;99.90
18191;DHT22;47004;51.366;12.348;2023-10-13T00:46:55;14.50;99.90
18191;DHT22;47004;51.366;12.348;2023-10-13T00:48:57;14.50;99.90
18191;DHT22;47004;51.366;12.348;2023-10-13T00:51:00;14.50;99.90
18191;DHT22;47004;51.366;12.348;2023-10-13T00:53:04;14.50;99.90
18191;DHT22;47004;51.366;12.348;2023-10-13T00:55:06;14.50;99.90
18191;DHT22;47004;51.366;12.348;2023-10-13T00:57:10;14.50;99.90
18191;DHT22;47004;51.366;12.348;2023-10-13T00:59:26;14.50;99.90
18191;DHT22;47004;51.366;12.348;2023-10-13T01:01:28;14.50;99.90
18191;DHT22;47004;51.366;12.348;2023-10-13T01:03:30;14.50;99.90
18191;DHT22;47004;51.366;12.348;2023-10-13T01:05:33;14.50;99.90
18191;DHT22;47004;51.366;12.348;2023-10-13T01:07:34;14.50;99.90
18191;DHT22;47004;51.366;12.348;2023-10-13T01:09:40;14.50;99.90
18191;DHT22;47004;51.366;12.348;2023-10-13T01:11:45;14.50;99.90
18191;DHT22;47004;51.366;12.348;2023-10-13T01:13:50;14.50;99.90
18191;DHT22;47004;51.366;12.348;2023-10-13T01:15:51;14.50;99.90
18191;DHT22;47004;51.366;12.348;2023-10-13T01:17:53;14.50;99.90
18191;DHT22;47004;51.366;12.348;2023-10-13T01:19:57;14.50;99.90
18191;DHT22;47004;51.366;12.348;2023-10-13T01:21:59;14.50;99.90
18191;DHT22;47004;51.366;12.348;2023-10-13T01:24:04;14.60;99.90
18191;DHT22;47004;51.366;12.348;2023-10-13T01:26:08;14.60;99.90
18191;DHT22;47004;51.366;12.348;2023-10-13T01:28:10;14.60;99.90
18191;DHT22;47004;51.366;12.348;2023-10-13T01:30:16;14.60;99.90
18191;DHT22;47004;51.366;12.348;2023-10-13T01:32:18;14.60;99.90
18191;DHT22;47004;51.366;12.348;2023-10-13T01:34:20;14.60;99.90
18191;DHT22;47004;51.366;12.348;2023-10-13T01:36:22;14.60;99.90
18191;DHT22;47004;51.366;12.348;2023-10-13T01:38:24;14.60;99.90
18191;DHT22;47004;51.366;12.348;2023-10-13T01:40:30;14.60;99.90
18191;DHT22;47004;51.366;12.348;2023-10-13T01:42:34;14.60;99.90
18191;DHT22;47004;51.366;12.348;2023-10-13T01:44:37;14.60;99.90
18191;DHT22;47004;51.366;12.348;2023-10-13T01:46:39;14.60;99.90
18191;DHT22;47004;51.366;12.348;2023-10-13T01:48:42;14.60;99.90
18191;DHT22;47004;51.366;12.348;2023-10-13T01:50:47;14.60;99.90
18191;DHT22;47004;51.366;12.348;2023-10-13T01:52:48;14.60;99.90
18191;DHT22;47004;51.366;12.348;2023-10-13T01:54:51;14.60;99.90
18191;DHT22;47004;51.366;12.348;2023-10-13T01:56:54;14.70;99.90
18191;DHT22;47004;51.366;12.348;2023-10-13T01:58:55;14.60;99.90
18191;DHT22;47004;51.366;12.348;2023-10-13T02:00:56;14.60;99.90
18191;DHT22;47004;51.366;12.348;2023-10-13T02:03:00;14.60;99.90
18191;DHT22;47004;51.366;12.348;2023-10-13T02:05:01;14.60;99.90
18191;DHT22;47004;51.366;12.348;2023-10-13T02:07:03;14.60;99.90
18191;DHT22;47004;51.366;12.348;2023-10-13T02:09:05;14.60;99.90
18191;DHT22;47004;51.366;12.348;2023-10-13T02:11:13;14.60;99.90
18191;DHT22;47004;51.366;12.348;2023-10-13T02:13:17;14.50;99.90
18191;DHT22;47004;51.366;12.348;2023-10-13T02:15:19;14.60;99.90
18191;DHT22;47004;51.366;12.348;2023-10-13T02:17:22;14.60;99.90
18191;DHT22;47004;51.366;12.348;2023-10-13T02:19:27;14.50;99.90
18191;DHT22;47004;51.366;12.348;2023-10-13T02:21:28;14.50;99.90
18191;DHT22;47004;51.366;12.348;2023-10-13T02:23:32;14.50;99.90
18191;DHT22;47004;51.366;12.348;2023-10-13T02:25:35;14.50;99.90
18191;DHT22;47004;51.366;12.348;2023-10-13T02:27:43;14.50;99.90
18191;DHT22;47004;51.366;12.348;2023-10-13T02:29:50;14.50;99.90
18191;DHT22;47004;51.366;12.348;2023-10-13T02:31:59;14.40;99.90
18191;DHT22;47004;51.366;12.348;2023-10-13T02:34:05;14.40;99.90
18191;DHT22;47004;51.366;12.348;2023-10-13T02:36:09;14.40;99.90
18191;DHT22;47004;51.366;12.348;2023-10-13T02:38:12;14.40;99.90
18191;DHT22;47004;51.366;12.348;2023-10-13T02:40:16;14.40;99.90
18191;DHT22;47004;51.366;12.348;2023-10-13T02:42:23;14.40;99.90
18191;DHT22;47004;51.366;12.348;2023-10-13T02:44:25;14.40;99.90
18191;DHT22;47004;51.366;12.348;2023-10-13T02:46:29;14.30;99.90
18191;DHT22;47004;51.366;12.348;2023-10-13T02:48:31;14.30;99.90
18191;DHT22;47004;51.366;12.348;2023-10-13T02:50:41;14.30;99.90
18191;DHT22;47004;51.366;12.348;2023-10-13T02:52:46;14.40;99.90
18191;DHT22;47004;51.366;12.348;2023-10-13T02:54:50;14.30;99.90
18191;DHT22;47004;51.366;12.348;2023-10-13T02:56:52;14.30;99.90
18191;DHT22;47004;51.366;12.348;2023-10-13T02:58:59;14.30;99.90
18191;DHT22;47004;51.366;12.348;2023-10-13T03:01:06;14.30;99.90
18191;DHT22;47004;51.366;12.348;2023-10-13T03:03:18;14.30;99.90
18191;DHT22;47004;51.366;12.348;2023-10-13T03:05:20;14.30;99.90
18191;DHT22;47004;51.366;12.348;2023-10-13T03:07:23;14.30;99.90
18191;DHT22;47004;51.366;12.348;2023-10-13T03:09:29;14.30;99.90
18191;DHT22;47004;51.366;12.348;2023-10-13T03:11:29;14.30;99.90
18191;DHT22;47004;51.366;12.348;2023-10-13T03:13:33;14.30;99.90
18191;DHT22;47004;51.366;12.348;2023-10-13T03:15:34;14.30;99.90
18191;DHT22;47004;51.366;12.348;2023-10-13T03:17:36;14.30;99.90
18191;DHT22;47004;51.366;12.348;2023-10-13T03:19:43;14.30;99.90
18191;DHT22;47004;51.366;12.348;2023-10-13T03:21:50;14.30;99.90
18191;DHT22;47004;51.366;12.348;2023-10-13T03:23:57;14.30;99.90
18191;DHT22;47004;51.366;12.348;2023-10-13T03:26:09;14.30;99.90
18191;DHT22;47004;51.366;12.348;2023-10-13T03:28:10;14.30;99.90
18191;DHT22;47004;51.366;12.348;2023-10-13T03:30:14;14.30;99.90
18191;DHT22;47004;51.366;12.348;2023-10-13T03:32:16;14.30;99.90
18191;DHT22;47004;51.366;12.348;2023-10-13T03:34:18;14.40;99.90
18191;DHT22;47004;51.366;12.348;2023-10-13T03:36:22;14.40;99.90
18191;DHT22;47004;51.366;12.348;2023-10-13T03:38:56;14.40;99.90
18191;DHT22;47004;51.366;12.348;2023-10-13T03:40:58;14.40;99.90
18191;DHT22;47004;51.366;12.348;2023-10-13T03:43:08;14.40;99.90
18191;DHT22;47004;51.366;12.348;2023-10-13T03:45:11;14.40;99.90
18191;DHT22;47004;51.366;12.348;2023-10-13T03:47:13;14.50;99.90
18191;DHT22;47004;51.366;12.348;2023-10-13T03:49:27;14.50;99.90
18191;DHT22;47004;51.366;12.348;2023-10-13T03:51:31;14.50;99.90
18191;DHT22;47004;51.366;12.348;2023-10-13T03:53:36;14.50;99.90
18191;DHT22;47004;51.366;12.348;2023-10-13T03:55:53;14.50;99.90
18191;DHT22;47004;51.366;12.348;2023-10-13T03:58:08;14.50;99.90
18191;DHT22;47004;51.366;12.348;2023-10-13T04:00:13;14.50;99.90
18191;DHT22;47004;51.366;12.348;2023-10-13T04:02:22;14.50;99.90
18191;DHT22;47004;51.366;12.348;2023-10-13T04:04:28;14.50;99.90
18191;DHT22;47004;51.366;12.348;2023-10-13T04:06:36;14.60;99.90
18191;DHT22;47004;51.366;12.348;2023-10-13T04:08:58;14.60;99.90
18191;DHT22;47004;51.366;12.348;2023-10-13T04:11:14;14.60;99.90
18191;DHT22;47004;51.366;12.348;2023-10-13T04:13:33;14.60;99.90
18191;DHT22;47004;51.366;12.348;2023-10-13T04:15:53;14.60;99.90
18191;DHT22;47004;51.366;12.348;2023-10-13T04:18:15;14.60;99.90
18191;DHT22;47004;51.366;12.348;2023-10-13T04:20:35;14.60;99.90
18191;DHT22;47004;51.366;12.348;2023-10-13T04:22:41;14.60;99.90
18191;DHT22;47004;51.366;12.348;2023-10-13T04:25:00;14.70;99.90
18191;DHT22;47004;51.366;12.348;2023-10-13T04:27:22;14.70;99.90
18191;DHT22;47004;51.366;12.348;2023-10-13T04:30:06;14.70;99.90
18191;DHT22;47004;51.366;12.348;2023-10-13T04:32:25;14.70;99.90
18191;DHT22;47004;51.366;12.348;2023-10-13T04:34:38;14.70;99.90
18191;DHT22;47004;51.366;12.348;2023-10-13T04:36:46;14.70;99.90
18191;DHT22;47004;51.366;12.348;2023-10-13T04:38:49;14.70;99.90
18191;DHT22;47004;51.366;12.348;2023-10-13T04:40:57;14.70;99.90
18191;DHT22;47004;51.366;12.348;2023-10-13T04:43:05;14.70;99.90
18191;DHT22;47004;51.366;12.348;2023-10-13T04:45:27;14.70;99.90
18191;DHT22;47004;51.366;12.348;2023-10-13T04:47:39;14.70;99.90
18191;DHT22;47004;51.366;12.348;2023-10-13T04:49:42;14.70;99.90
18191;DHT22;47004;51.366;12.348;2023-10-13T04:51:54;14.70;99.90
18191;DHT22;47004;51.366;12.348;2023-10-13T04:54:00;14.70;99.90
18191;DHT22;47004;51.366;12.348;2023-10-13T04:56:04;14.70;99.90
18191;DHT22;47004;51.366;12.348;2023-10-13T04:58:09;14.70;99.90
18191;DHT22;47004;51.366;12.348;2023-10-13T05:00:36;14.70;99.90
18191;DHT22;47004;51.366;12.348;2023-10-13T05:03:16;14.70;99.90
18191;DHT22;47004;51.366;12.348;2023-10-13T05:05:42;14.70;99.90
18191;DHT22;47004;51.366;12.348;2023-10-13T05:07:53;14.70;99.90
18191;DHT22;47004;51.366;12.348;2023-10-13T05:10:10;14.70;99.90
18191;DHT22;47004;51.366;12.348;2023-10-13T05:12:29;14.70;99.90
18191;DHT22;47004;51.366;12.348;2023-10-13T05:14:48;14.70;99.90
18191;DHT22;47004;51.366;12.348;2023-10-13T05:17:08;14.70;99.90
18191;DHT22;47004;51.366;12.348;2023-10-13T05:19:27;14.70;99.90
18191;DHT22;47004;51.366;12.348;2023-10-13T05:21:47;14.70;99.90
18191;DHT22;47004;51.366;12.348;2023-10-13T05:24:07;14.70;99.90
18191;DHT22;47004;51.366;12.348;2023-10-13T05:26:28;14.70;99.90
18191;DHT22;47004;51.366;12.348;2023-10-13T05:28:47;14.70;99.90
18191;DHT22;47004;51.366;12.348;2023-10-13T05:31:07;14.70;99.90
18191;DHT22;47004;51.366;12.348;2023-10-13T05:33:26;14.80;99.90
18191;DHT22;47004;51.366;12.348;2023-10-13T05:35:45;14.80;99.90
18191;DHT22;47004;51.366;12.348;2023-10-13T05:38:05;14.80;99.90
18191;DHT22;47004;51.366;12.348;2023-10-13T05:40:24;14.80;99.90
18191;DHT22;47004;51.366;12.348;2023-10-13T05:42:45;14.80;99.90
18191;DHT22;47004;51.366;12.348;2023-10-13T05:45:05;14.80;99.90
18191;DHT22;47004;51.366;12.348;2023-10-13T05:47:21;14.80;99.90
18191;DHT22;47004;51.366;12.348;2023-10-13T05:49:49;14.80;99.90
18191;DHT22;47004;51.366;12.348;2023-10-13T05:51:51;14.80;99.90
18191;DHT22;47004;51.366;12.348;2023-10-13T05:53:58;14.80;99.90
18191;DHT22;47004;51.366;12.348;2023-10-13T05:56:17;14.80;99.90
18191;DHT22;47004;51.366;12.348;2023-10-13T05:58:38;14.90;99.90
18191;DHT22;47004;51.366;12.348;2023-10-13T06:00:58;15.00;99.90
18191;DHT22;47004;51.366;12.348;2023-10-13T06:03:14;14.90;99.90
18191;DHT22;47004;51.366;12.348;2023-10-13T06:05:33;14.90;99.90
18191;DHT22;47004;51.366;12.348;2023-10-13T06:07:53;15.00;99.90
18191;DHT22;47004;51.366;12.348;2023-10-13T06:10:13;14.90;99.90
18191;DHT22;47004;51.366;12.348;2023-10-13T06:12:33;15.00;99.90
18191;DHT22;47004;51.366;12.348;2023-10-13T06:14:53;15.00;99.90
18191;DHT22;47004;51.366;12.348;2023-10-13T06:17:12;15.00;99.90
18191;DHT22;47004;51.366;12.348;2023-10-13T06:19:32;15.00;99.90
18191;DHT22;47004;51.366;12.348;2023-10-13T06:21:51;15.10;99.90
18191;DHT22;47004;51.366;12.348;2023-10-13T06:24:10;15.10;99.90
18191;DHT22;47004;51.366;12.348;2023-10-13T06:26:30;15.10;99.90
18191;DHT22;47004;51.366;12.348;2023-10-13T06:28:49;15.10;99.90
18191;DHT22;47004;51.366;12.348;2023-10-13T06:30:58;15.20;99.90
18191;DHT22;47004;51.366;12.348;2023-10-13T06:33:02;15.20;99.90
18191;DHT22;47004;51.366;12.348;2023-10-13T06:35:06;15.20;99.90
18191;DHT22;47004;51.366;12.348;2023-10-13T06:37:19;15.20;99.90
18191;DHT22;47004;51.366;12.348;2023-10-13T06:39:30;15.20;99.90
18191;DHT22;47004;51.366;12.348;2023-10-13T06:41:38;15.30;99.90
18191;DHT22;47004;51.366;12.348;2023-10-13T06:43:41;15.30;99.90
18191;DHT22;47004;51.366;12.348;2023-10-13T06:45:43;15.30;99.90
18191;DHT22;47004;51.366;12.348;2023-10-13T06:47:52;15.30;99.90
18191;DHT22;47004;51.366;12.348;2023-10-13T06:49:56;15.30;99.90
18191;DHT22;47004;51.366;12.348;2023-10-13T06:51:58;15.40;99.90
18191;DHT22;47004;51.366;12.348;2023-10-13T06:54:01;15.40;99.90
18191;DHT22;47004;51.366;12.348;2023-10-13T06:56:06;15.40;99.90
18191;DHT22;47004;51.366;12.348;2023-10-13T06:58:09;15.40;99.90
18191;DHT22;47004;51.366;12.348;2023-10-13T07:00:14;15.50;99.90
18191;DHT22;47004;51.366;12.348;2023-10-13T07:02:26;15.50;99.90
18191;DHT22;47004;51.366;12.348;2023-10-13T07:04:35;15.60;99.90
18191;DHT22;47004;51.366;12.348;2023-10-13T07:06:40;15.60;99.90
18191;DHT22;47004;51.366;12.348;2023-10-13T07:08:49;15.60;99.90
18191;DHT22;47004;51.366;12.348;2023-10-13T07:10:54;15.70;99.90
18191;DHT22;47004;51.366;12.348;2023-10-13T07:13:03;15.70;99.90
18191;DHT22;47004;51.366;12.348;2023-10-13T07:15:09;15.80;99.90
18191;DHT22;47004;51.366;12.348;2023-10-13T07:17:20;15.80;99.90
18191;DHT22;47004;51.366;12.348;2023-10-13T07:19:25;15.90;99.90
18191;DHT22;47004;51.366;12.348;2023-10-13T07:21:29;16.00;99.90
18191;DHT22;47004;51.366;12.348;2023-10-13T07:23:32;16.00;99.90
18191;DHT22;47004;51.366;12.348;2023-10-13T07:25:36;16.00;99.90
18191;DHT22;47004;51.366;12.348;2023-10-13T07:27:41;16.00;99.90
18191;DHT22;47004;51.366;12.348;2023-10-13T07:29:43;16.10;99.90
18191;DHT22;47004;51.366;12.348;2023-10-13T07:31:44;16.10;99.90
18191;DHT22;47004;51.366;12.348;2023-10-13T07:33:46;16.10;99.90
18191;DHT22;47004;51.366;12.348;2023-10-13T07:35:59;16.10;99.90
18191;DHT22;47004;51.366;12.348;2023-10-13T07:38:11;16.20;99.90
18191;DHT22;47004;51.366;12.348;2023-10-13T07:40:14;16.20;99.90
18191;DHT22;47004;51.366;12.348;2023-10-13T07:42:40;16.20;99.90
18191;DHT22;47004;51.366;12.348;2023-10-13T07:44:43;16.30;99.90
18191;DHT22;47004;51.366;12.348;2023-10-13T07:46:47;16.30;99.90
18191;DHT22;47004;51.366;12.348;2023-10-13T07:48:59;16.40;99.90
18191;DHT22;47004;51.366;12.348;2023-10-13T07:51:09;16.40;99.90
18191;DHT22;47004;51.366;12.348;2023-10-13T07:53:14;16.40;99.90
18191;DHT22;47004;51.366;12.348;2023-10-13T07:55:24;16.50;99.90
18191;DHT22;47004;51.366;12.348;2023-10-13T07:57:26;16.50;99.90
18191;DHT22;47004;51.366;12.348;2023-10-13T07:59:30;16.60;99.90
18191;DHT22;47004;51.366;12.348;2023-10-13T08:01:32;16.70;99.90
18191;DHT22;47004;51.366;12.348;2023-10-13T08:03:35;16.70;99.90
18191;DHT22;47004;51.366;12.348;2023-10-13T08:05:44;16.70;99.90
18191;DHT22;47004;51.366;12.348;2023-10-13T08:07:59;16.80;99.90
18191;DHT22;47004;51.366;12.348;2023-10-13T08:10:02;16.80;99.90
18191;DHT22;47004;51.366;12.348;2023-10-13T08:12:10;16.80;99.90
18191;DHT22;47004;51.366;12.348;2023-10-13T08:14:12;16.80;99.90
18191;DHT22;47004;51.366;12.348;2023-10-13T08:16:23;16.90;99.90
18191;DHT22;47004;51.366;12.348;2023-10-13T08:18:29;16.90;99.90
18191;DHT22;47004;51.366;12.348;2023-10-13T08:20:39;16.90;99.90
18191;DHT22;47004;51.366;12.348;2023-10-13T08:22:40;17.00;99.90
18191;DHT22;47004;51.366;12.348;2023-10-13T08:24:48;17.00;99.90
18191;DHT22;47004;51.366;12.348;2023-10-13T08:27:10;17.00;99.90
18191;DHT22;47004;51.366;12.348;2023-10-13T08:29:31;17.10;99.90
18191;DHT22;47004;51.366;12.348;2023-10-13T08:31:52;17.10;99.90
18191;DHT22;47004;51.366;12.348;2023-10-13T08:34:14;17.10;99.90
18191;DHT22;47004;51.366;12.348;2023-10-13T08:36:24;17.20;99.90
18191;DHT22;47004;51.366;12.348;2023-10-13T08:38:30;17.20;99.90
18191;DHT22;47004;51.366;12.348;2023-10-13T08:40:44;17.20;99.90
18191;DHT22;47004;51.366;12.348;2023-10-13T08:43:13;17.30;99.90
18191;DHT22;47004;51.366;12.348;2023-10-13T08:45:17;17.30;99.90
18191;DHT22;47004;51.366;12.348;2023-10-13T08:47:21;17.30;99.90
18191;DHT22;47004;51.366;12.348;2023-10-13T08:49:25;17.30;99.90
18191;DHT22;47004;51.366;12.348;2023-10-13T08:51:34;17.30;99.90
18191;DHT22;47004;51.366;12.348;2023-10-13T08:53:44;17.40;99.90
18191;DHT22;47004;51.366;12.348;2023-10-13T08:55:52;17.40;99.90
18191;DHT22;47004;51.366;12.348;2023-10-13T08:58:04;17.50;99.90
18191;DHT22;47004;51.366;12.348;2023-10-13T09:00:16;17.60;99.90
18191;DHT22;47004;51.366;12.348;2023-10-13T09:02:49;17.60;99.90
18191;DHT22;47004;51.366;12.348;2023-10-13T09:05:21;17.70;99.90
18191;DHT22;47004;51.366;12.348;2023-10-13T09:07:45;17.70;99.90
18191;DHT22;47004;51.366;12.348;2023-10-13T09:09:49;17.70;99.90
18191;DHT22;47004;51.366;12.348;2023-10-13T09:12:00;17.70;99.90
18191;DHT22;47004;51.366;12.348;2023-10-13T09:14:13;17.80;99.90
18191;DHT22;47004;51.366;12.348;2023-10-13T09:16:34;17.80;99.90
18191;DHT22;47004;51.366;12.348;2023-10-13T09:18:50;17.80;99.90
18191;DHT22;47004;51.366;12.348;2023-10-13T09:20:59;17.80;99.90
18191;DHT22;47004;51.366;12.348;2023-10-13T09:23:18;17.90;99.90
18191;DHT22;47004;51.366;12.348;2023-10-13T09:25:24;18.00;99.90
18191;DHT22;47004;51.366;12.348;2023-10-13T09:27:27;18.00;99.90
18191;DHT22;47004;51.366;12.348;2023-10-13T09:29:29;18.00;99.90
18191;DHT22;47004;51.366;12.348;2023-10-13T09:31:30;18.00;99.90
18191;DHT22;47004;51.366;12.348;2023-10-13T09:33:36;18.10;99.90
18191;DHT22;47004;51.366;12.348;2023-10-13T09:35:37;18.10;99.90
18191;DHT22;47004;51.366;12.348;2023-10-13T09:37:40;18.10;99.90
18191;DHT22;47004;51.366;12.348;2023-10-13T09:39:42;18.10;99.90
18191;DHT22;47004;51.366;12.348;2023-10-13T09:41:46;18.10;99.90
18191;DHT22;47004;51.366;12.348;2023-10-13T09:43:53;18.20;99.90
18191;DHT22;47004;51.366;12.348;2023-10-13T09:45:59;18.30;99.90
18191;DHT22;47004;51.366;12.348;2023-10-13T09:48:04;18.30;99.90
18191;DHT22;47004;51.366;12.348;2023-10-13T09:50:19;18.30;99.90
18191;DHT22;47004;51.366;12.348;2023-10-13T09:52:25;18.40;99.90
18191;DHT22;47004;51.366;12.348;2023-10-13T09:54:36;18.40;99.90
18191;DHT22;47004;51.366;12.348;2023-10-13T09:56:45;18.40;99.90
18191;DHT22;47004;51.366;12.348;2023-10-13T09:58:58;18.50;99.90
18191;DHT22;47004;51.366;12.348;2023-10-13T10:01:02;18.50;99.90
18191;DHT22;47004;51.366;12.348;2023-10-13T10:03:09;18.50;99.90
18191;DHT22;47004;51.366;12.348;2023-10-13T10:05:24;18.50;99.90
18191;DHT22;47004;51.366;12.348;2023-10-13T10:07:26;18.60;99.90
18191;DHT22;47004;51.366;12.348;2023-10-13T10:09:30;18.60;99.90
18191;DHT22;47004;51.366;12.348;2023-10-13T10:11:57;18.60;99.90
18191;DHT22;47004;51.366;12.348;2023-10-13T10:14:08;18.60;99.90
18191;DHT22;47004;51.366;12.348;2023-10-13T10:16:16;18.70;99.90
18191;DHT22;47004;51.366;12.348;2023-10-13T10:18:21;18.80;99.90
18191;DHT22;47004;51.366;12.348;2023-10-13T10:20:32;18.80;99.90
18191;DHT22;47004;51.366;12.348;2023-10-13T10:22:58;18.90;99.90
18191;DHT22;47004;51.366;12.348;2023-10-13T10:25:01;18.90;99.90
18191;DHT22;47004;51.366;12.348;2023-10-13T10:27:03;18.90;99.90
18191;DHT22;47004;51.366;12.348;2023-10-13T10:29:11;19.00;99.90
18191;DHT22;47004;51.366;12.348;2023-10-13T10:31:15;19.10;99.90
18191;DHT22;47004;51.366;12.348;2023-10-13T10:33:30;19.10;99.90
18191;DHT22;47004;51.366;12.348;2023-10-13T10:35:35;19.10;99.90
18191;DHT22;47004;51.366;12.348;2023-10-13T10:37:38;19.20;99.90
18191;DHT22;47004;51.366;12.348;2023-10-13T10:39:47;19.30;99.90
18191;DHT22;47004;51.366;12.348;2023-10-13T10:41:50;19.30;99.90
18191;DHT22;47004;51.366;12.348;2023-10-13T10:43:53;19.40;99.90
18191;DHT22;47004;51.366;12.348;2023-10-13T10:45:55;19.40;99.90
18191;DHT22;47004;51.366;12.348;2023-10-13T10:48:05;19.50;99.90
18191;DHT22;47004;51.366;12.348;2023-10-13T10:50:25;19.50;99.90
18191;DHT22;47004;51.366;12.348;2023-10-13T10:52:39;19.60;99.90
18191;DHT22;47004;51.366;12.348;2023-10-13T10:54:41;19.70;99.90
18191;DHT22;47004;51.366;12.348;2023-10-13T10:56:46;19.70;99.90
18191;DHT22;47004;51.366;12.348;2023-10-13T10:58:55;19.80;99.90
18191;DHT22;47004;51.366;12.348;2023-10-13T11:01:05;19.90;99.90
18191;DHT22;47004;51.366;12.348;2023-10-13T11:03:12;19.90;99.90
18191;DHT22;47004;51.366;12.348;2023-10-13T11:05:14;20.00;99.90
18191;DHT22;47004;51.366;12.348;2023-10-13T11:07:22;20.10;99.90
18191;DHT22;47004;51.366;12.348;2023-10-13T11:09:27;20.10;99.90
18191;DHT22;47004;51.366;12.348;2023-10-13T11:11:37;20.20;99.90
18191;DHT22;47004;51.366;12.348;2023-10-13T11:13:44;20.30;99.90
18191;DHT22;47004;51.366;12.348;2023-10-13T11:15:51;20.30;99.90
18191;DHT22;47004;51.366;12.348;2023-10-13T11:17:53;20.30;99.90
18191;DHT22;47004;51.366;12.348;2023-10-13T11:19:57;20.40;99.90
18191;DHT22;47004;51.366;12.348;2023-10-13T11:22:09;20.50;99.90
18191;DHT22;47004;51.366;12.348;2023-10-13T11:24:11;20.50;99.90
18191;DHT22;47004;51.366;12.348;2023-10-13T11:26:15;20.50;99.90
18191;DHT22;47004;51.366;12.348;2023-10-13T11:28:19;20.60;99.90
18191;DHT22;47004;51.366;12.348;2023-10-13T11:30:22;20.60;99.90
18191;DHT22;47004;51.366;12.348;2023-10-13T11:32:26;20.70;99.90
18191;DHT22;47004;51.366;12.348;2023-10-13T11:34:29;20.70;99.90
18191;DHT22;47004;51.366;12.348;2023-10-13T11:36:40;20.70;99.90
18191;DHT22;47004;51.366;12.348;2023-10-13T11:38:42;20.80;99.90
18191;DHT22;47004;51.366;12.348;2023-10-13T11:40:50;20.80;99.90
18191;DHT22;47004;51.366;12.348;2023-10-13T11:43:09;20.90;99.90
18191;DHT22;47004;51.366;12.348;2023-10-13T11:45:14;20.90;99.90
18191;DHT22;47004;51.366;12.348;2023-10-13T11:47:29;20.90;99.90
18191;DHT22;47004;51.366;12.348;2023-10-13T11:49:48;21.00;99.90
18191;DHT22;47004;51.366;12.348;2023-10-13T11:51:57;21.00;99.90
18191;DHT22;47004;51.366;12.348;2023-10-13T11:54:09;21.00;99.90
18191;DHT22;47004;51.366;12.348;2023-10-13T11:56:11;21.00;99.90
18191;DHT22;47004;51.366;12.348;2023-10-13T11:58:17;21.00;99.90
18191;DHT22;47004;51.366;12.348;2023-10-13T12:00:19;21.00;99.90
18191;DHT22;47004;51.366;12.348;2023-10-13T12:02:49;21.00;99.90
18191;DHT22;47004;51.366;12.348;2023-10-13T12:05:17;21.00;99.90
18191;DHT22;47004;51.366;12.348;2023-10-13T12:07:28;20.90;99.90
18191;DHT22;47004;51.366;12.348;2023-10-13T12:09:50;21.00;99.90
18191;DHT22;47004;51.366;12.348;2023-10-13T12:12:07;21.10;99.90
18191;DHT22;47004;51.366;12.348;2023-10-13T12:14:11;21.20;99.90
18191;DHT22;47004;51.366;12.348;2023-10-13T12:16:21;21.30;99.90
18191;DHT22;47004;51.366;12.348;2023-10-13T12:18:23;21.60;99.90
18191;DHT22;47004;51.366;12.348;2023-10-13T12:20:28;21.80;99.90
18191;DHT22;47004;51.366;12.348;2023-10-13T12:22:33;22.20;99.90
18191;DHT22;47004;51.366;12.348;2023-10-13T12:24:39;22.60;99.90
18191;DHT22;47004;51.366;12.348;2023-10-13T12:26:43;22.80;99.90
18191;DHT22;47004;51.366;12.348;2023-10-13T12:28:44;23.10;99.90
18191;DHT22;47004;51.366;12.348;2023-10-13T12:30:54;23.40;99.90
18191;DHT22;47004;51.366;12.348;2023-10-13T12:32:57;23.70;99.90
18191;DHT22;47004;51.366;12.348;2023-10-13T12:35:09;24.00;99.90
18191;DHT22;47004;51.366;12.348;2023-10-13T12:37:31;24.50;99.90
18191;DHT22;47004;51.366;12.348;2023-10-13T12:39:50;25.10;99.90
18191;DHT22;47004;51.366;12.348;2023-10-13T12:42:09;25.50;99.90
18191;DHT22;47004;51.366;12.348;2023-10-13T12:44:32;25.80;99.90
18191;DHT22;47004;51.366;12.348;2023-10-13T12:46:53;25.70;99.90
18191;DHT22;47004;51.366;12.348;2023-10-13T12:49:12;25.30;99.90
18191;DHT22;47004;51.366;12.348;2023-10-13T12:51:37;25.10;99.90
18191;DHT22;47004;51.366;12.348;2023-10-13T12:53:55;25.00;99.90
18191;DHT22;47004;51.366;12.348;2023-10-13T12:55:56;25.50;99.90
18191;DHT22;47004;51.366;12.348;2023-10-13T12:57:58;26.00;99.90
18191;DHT22;47004;51.366;12.348;2023-10-13T13:00:00;26.50;99.90
18191;DHT22;47004;51.366;12.348;2023-10-13T13:02:05;26.70;99.90
18191;DHT22;47004;51.366;12.348;2023-10-13T13:04:08;26.60;99.90
18191;DHT22;47004;51.366;12.348;2023-10-13T13:06:19;26.20;99.90
18191;DHT22;47004;51.366;12.348;2023-10-13T13:08:25;25.90;99.90
18191;DHT22;47004;51.366;12.348;2023-10-13T13:10:35;25.80;99.90
18191;DHT22;47004;51.366;12.348;2023-10-13T13:12:36;25.80;99.90
18191;DHT22;47004;51.366;12.348;2023-10-13T13:14:39;26.00;99.90
18191;DHT22;47004;51.366;12.348;2023-10-13T13:16:46;26.20;99.90
18191;DHT22;47004;51.366;12.348;2023-10-13T13:18:50;26.50;99.90
18191;DHT22;47004;51.366;12.348;2023-10-13T13:20:52;26.60;99.90